createdAt,value
2022-09-12T00:00:00.846Z,1015.64
2022-09-12T00:01:05.235Z,1015.65
2022-09-12T00:02:09.480Z,1015.64
2022-09-12T00:03:13.729Z,1015.62
2022-09-12T00:04:18.021Z,1015.62
2022-09-12T00:05:22.312Z,1015.61
2022-09-12T00:06:26.743Z,1015.59
2022-09-12T00:07:30.979Z,1015.54
2022-09-12T00:08:35.389Z,1015.54
2022-09-12T00:09:39.644Z,1015.53
2022-09-12T00:10:43.943Z,1015.53
2022-09-12T00:11:48.254Z,1015.52
2022-09-12T00:12:52.632Z,1015.53
2022-09-12T00:13:56.894Z,1015.52
2022-09-12T00:15:01.190Z,1015.55
2022-09-12T00:16:05.546Z,1015.54
2022-09-12T00:17:09.884Z,1015.56
2022-09-12T00:18:14.264Z,1015.55
2022-09-12T00:19:18.484Z,1015.55
2022-09-12T00:20:22.752Z,1015.55
2022-09-12T00:21:27.083Z,1015.57
2022-09-12T00:22:31.479Z,1015.59
2022-09-12T00:23:35.787Z,1015.60
2022-09-12T00:24:40.029Z,1015.62
2022-09-12T00:25:44.403Z,1015.60
2022-09-12T00:26:48.818Z,1015.60
2022-09-12T00:27:53.174Z,1015.60
2022-09-12T00:28:57.635Z,1015.59
2022-09-12T00:30:01.881Z,1015.58
2022-09-12T00:31:06.117Z,1015.61
2022-09-12T00:32:10.407Z,1015.58
2022-09-12T00:33:14.733Z,1015.58
2022-09-12T00:34:19.123Z,1015.58
2022-09-12T00:35:23.364Z,1015.55
2022-09-12T00:36:27.785Z,1015.54
2022-09-12T00:37:32.041Z,1015.51
2022-09-12T00:38:36.322Z,1015.50
2022-09-12T00:39:40.675Z,1015.51
2022-09-12T00:40:45.007Z,1015.49
2022-09-12T00:41:49.326Z,1015.52
2022-09-12T00:42:53.590Z,1015.50
2022-09-12T00:43:57.990Z,1015.50
2022-09-12T00:45:02.325Z,1015.49
2022-09-12T00:46:06.720Z,1015.48
2022-09-12T00:47:10.907Z,1015.47
2022-09-12T00:48:15.179Z,1015.45
2022-09-12T00:49:19.433Z,1015.44
2022-09-12T00:50:23.823Z,1015.44
2022-09-12T00:51:28.077Z,1015.44
2022-09-12T00:52:32.442Z,1015.46
2022-09-12T00:53:36.698Z,1015.44
2022-09-12T00:54:41.137Z,1015.46
2022-09-12T00:55:45.456Z,1015.44
2022-09-12T00:56:49.844Z,1015.46
2022-09-12T00:57:54.107Z,1015.45
2022-09-12T00:58:58.421Z,1015.43
2022-09-12T01:00:02.774Z,1015.42
2022-09-12T01:01:07.183Z,1015.41
2022-09-12T01:02:11.447Z,1015.39
2022-09-12T01:03:15.671Z,1015.39
2022-09-12T01:04:19.930Z,1015.38
2022-09-12T01:05:24.195Z,1015.39
2022-09-12T01:06:28.548Z,1015.37
2022-09-12T01:07:35.787Z,1015.35
2022-09-12T01:08:37.154Z,1015.35
2022-09-12T01:09:41.458Z,1015.34
2022-09-12T01:10:45.807Z,1015.35
2022-09-12T01:11:50.071Z,1015.37
2022-09-12T01:12:54.494Z,1015.36
2022-09-12T01:15:07.825Z,1015.39
2022-09-12T01:16:12.179Z,1015.40
2022-09-12T01:17:16.474Z,1015.39
2022-09-12T01:18:20.762Z,1015.40
2022-09-12T01:19:25.041Z,1015.39
2022-09-12T01:20:29.455Z,1015.38
2022-09-12T01:21:33.678Z,1015.36
2022-09-12T01:22:37.934Z,1015.36
2022-09-12T01:23:42.244Z,1015.38
2022-09-12T01:24:46.551Z,1015.35
2022-09-12T01:25:50.845Z,1015.36
2022-09-12T01:26:55.192Z,1015.34
2022-09-12T01:27:59.437Z,1015.35
2022-09-12T01:29:03.821Z,1015.35
2022-09-12T01:30:08.141Z,1015.37
2022-09-12T01:31:12.467Z,1015.36
2022-09-12T01:32:16.780Z,1015.37
2022-09-12T01:33:20.991Z,1015.34
2022-09-12T01:34:25.281Z,1015.36
2022-09-12T01:35:29.569Z,1015.37
2022-09-12T01:36:33.872Z,1015.37
2022-09-12T01:37:38.217Z,1015.39
2022-09-12T01:38:42.515Z,1015.40
2022-09-12T01:39:46.814Z,1015.43
2022-09-12T01:40:51.083Z,1015.45
2022-09-12T01:41:55.405Z,1015.43
2022-09-12T01:42:59.720Z,1015.42
2022-09-12T01:44:04.080Z,1015.42
2022-09-12T01:45:08.293Z,1015.40
2022-09-12T01:46:12.634Z,1015.41
2022-09-12T01:47:16.929Z,1015.38
2022-09-12T01:48:21.261Z,1015.38
2022-09-12T01:49:25.519Z,1015.36
2022-09-12T01:50:29.817Z,1015.38
2022-09-12T01:51:34.115Z,1015.36
2022-09-12T01:52:38.384Z,1015.34
2022-09-12T01:53:42.653Z,1015.36
2022-09-12T01:54:47.062Z,1015.37
2022-09-12T01:55:51.332Z,1015.39
2022-09-12T01:56:55.627Z,1015.40
2022-09-12T01:58:00.031Z,1015.39
2022-09-12T01:59:04.301Z,1015.40
2022-09-12T02:00:08.586Z,1015.37
2022-09-12T02:01:12.919Z,1015.37
2022-09-12T02:02:17.204Z,1015.35
2022-09-12T02:03:21.626Z,1015.34
2022-09-12T02:04:25.866Z,1015.33
2022-09-12T02:05:30.207Z,1015.32
2022-09-12T02:06:34.588Z,1015.33
2022-09-12T02:07:38.858Z,1015.32
2022-09-12T02:08:43.253Z,1015.33
2022-09-12T02:09:47.364Z,1015.32
2022-09-12T02:10:51.675Z,1015.32
2022-09-12T02:11:55.960Z,1015.32
2022-09-12T02:13:00.288Z,1015.32
2022-09-12T02:14:04.598Z,1015.31
2022-09-12T02:15:08.875Z,1015.31
2022-09-12T02:16:13.185Z,1015.32
2022-09-12T02:17:17.451Z,1015.31
2022-09-12T02:18:21.748Z,1015.30
2022-09-12T02:19:26.000Z,1015.32
2022-09-12T02:20:47.295Z,1015.31
2022-09-12T02:21:34.576Z,1015.32
2022-09-12T02:22:38.872Z,1015.33
2022-09-12T02:23:43.205Z,1015.32
2022-09-12T02:24:47.556Z,1015.33
2022-09-12T02:25:51.783Z,1015.34
2022-09-12T02:26:56.022Z,1015.36
2022-09-12T02:28:00.351Z,1015.35
2022-09-12T02:29:04.618Z,1015.35
2022-09-12T02:30:09.057Z,1015.33
2022-09-12T02:31:13.228Z,1015.32
2022-09-12T02:32:17.485Z,1015.29
2022-09-12T02:33:21.825Z,1015.28
2022-09-12T02:34:26.062Z,1015.29
2022-09-12T02:35:30.354Z,1015.28
2022-09-12T02:36:34.684Z,1015.27
2022-09-12T02:37:38.981Z,1015.27
2022-09-12T02:38:43.245Z,1015.25
2022-09-12T02:39:47.598Z,1015.24
2022-09-12T02:40:51.825Z,1015.23
2022-09-12T02:41:56.135Z,1015.22
2022-09-12T02:43:00.483Z,1015.20
2022-09-12T02:44:04.807Z,1015.22
2022-09-12T02:45:09.062Z,1015.24
2022-09-12T02:46:13.398Z,1015.25
2022-09-12T02:47:17.671Z,1015.25
2022-09-12T02:48:22.195Z,1015.25
2022-09-12T02:49:26.418Z,1015.26
2022-09-12T02:50:30.684Z,1015.26
2022-09-12T02:51:34.944Z,1015.27
2022-09-12T02:52:39.367Z,1015.29
2022-09-12T02:53:43.540Z,1015.33
2022-09-12T02:54:47.881Z,1015.33
2022-09-12T02:55:52.167Z,1015.34
2022-09-12T02:56:56.423Z,1015.34
2022-09-12T02:58:00.744Z,1015.33
2022-09-12T02:59:05.126Z,1015.31
2022-09-12T03:00:09.367Z,1015.29
2022-09-12T03:01:13.676Z,1015.27
2022-09-12T03:02:17.960Z,1015.27
2022-09-12T03:03:22.208Z,1015.27
2022-09-12T03:04:26.508Z,1015.25
2022-09-12T03:05:30.813Z,1015.26
2022-09-12T03:06:35.073Z,1015.27
2022-09-12T03:07:39.383Z,1015.26
2022-09-12T03:08:43.730Z,1015.26
2022-09-12T03:09:47.961Z,1015.25
2022-09-12T03:10:52.328Z,1015.24
2022-09-12T03:11:56.559Z,1015.26
2022-09-12T03:13:00.843Z,1015.24
2022-09-12T03:14:05.091Z,1015.23
2022-09-12T03:15:09.351Z,1015.23
2022-09-12T03:16:13.877Z,1015.24
2022-09-12T03:17:17.981Z,1015.25
2022-09-12T03:18:22.272Z,1015.24
2022-09-12T03:19:26.605Z,1015.25
2022-09-12T03:20:30.753Z,1015.27
2022-09-12T03:21:35.094Z,1015.26
2022-09-12T03:22:39.482Z,1015.29
2022-09-12T03:23:43.846Z,1015.28
2022-09-12T03:24:48.158Z,1015.30
2022-09-12T03:25:52.414Z,1015.29
2022-09-12T03:26:56.773Z,1015.28
2022-09-12T03:28:01.000Z,1015.27
2022-09-12T03:29:05.299Z,1015.28
2022-09-12T03:30:09.559Z,1015.24
2022-09-12T03:31:13.826Z,1015.24
2022-09-12T03:32:18.141Z,1015.23
2022-09-12T03:33:22.412Z,1015.24
2022-09-12T03:34:26.783Z,1015.23
2022-09-12T03:35:31.054Z,1015.23
2022-09-12T03:36:35.332Z,1015.25
2022-09-12T03:37:39.595Z,1015.25
2022-09-12T03:38:43.926Z,1015.23
2022-09-12T03:39:48.343Z,1015.24
2022-09-12T03:40:54.850Z,1015.25
2022-09-12T03:41:56.848Z,1015.23
2022-09-12T03:43:01.189Z,1015.23
2022-09-12T03:44:05.416Z,1015.22
2022-09-12T03:45:09.696Z,1015.21
2022-09-12T03:46:13.980Z,1015.22
2022-09-12T03:47:18.283Z,1015.22
2022-09-12T03:48:22.585Z,1015.22
2022-09-12T03:49:26.848Z,1015.22
2022-09-12T03:50:31.167Z,1015.24
2022-09-12T03:51:35.406Z,1015.26
2022-09-12T03:52:39.792Z,1015.25
2022-09-12T03:53:43.962Z,1015.26
2022-09-12T03:54:48.285Z,1015.27
2022-09-12T03:55:52.644Z,1015.28
2022-09-12T03:56:56.975Z,1015.28
2022-09-12T03:58:01.096Z,1015.28
2022-09-12T03:59:05.488Z,1015.27
2022-09-12T04:00:09.778Z,1015.25
2022-09-12T04:01:14.130Z,1015.26
2022-09-12T04:02:18.400Z,1015.29
2022-09-12T04:03:22.571Z,1015.29
2022-09-12T04:04:26.885Z,1015.32
2022-09-12T04:05:31.172Z,1015.30
2022-09-12T04:06:35.398Z,1015.32
2022-09-12T04:07:39.675Z,1015.33
2022-09-12T04:08:43.926Z,1015.32
2022-09-12T04:09:48.198Z,1015.33
2022-09-12T04:10:52.438Z,1015.30
2022-09-12T04:11:56.783Z,1015.33
2022-09-12T04:13:01.027Z,1015.34
2022-09-12T04:14:05.388Z,1015.35
2022-09-12T04:15:09.685Z,1015.34
2022-09-12T04:16:14.033Z,1015.37
2022-09-12T04:17:18.290Z,1015.38
2022-09-12T04:18:22.541Z,1015.40
2022-09-12T04:19:26.825Z,1015.42
2022-09-12T04:20:31.102Z,1015.41
2022-09-12T04:21:35.436Z,1015.42
2022-09-12T04:22:39.715Z,1015.43
2022-09-12T04:23:43.951Z,1015.44
2022-09-12T04:24:48.226Z,1015.45
2022-09-12T04:25:52.557Z,1015.48
2022-09-12T04:26:56.901Z,1015.46
2022-09-12T04:28:01.161Z,1015.48
2022-09-12T04:29:05.474Z,1015.47
2022-09-12T04:30:09.701Z,1015.48
2022-09-12T04:31:13.970Z,1015.48
2022-09-12T04:32:18.255Z,1015.48
2022-09-12T04:33:22.498Z,1015.46
2022-09-12T04:34:26.779Z,1015.47
2022-09-12T04:35:31.047Z,1015.46
2022-09-12T04:36:35.367Z,1015.49
2022-09-12T04:37:39.706Z,1015.48
2022-09-12T04:38:43.964Z,1015.47
2022-09-12T04:39:48.258Z,1015.48
2022-09-12T04:40:52.540Z,1015.48
2022-09-12T04:41:56.764Z,1015.48
2022-09-12T04:43:01.023Z,1015.47
2022-09-12T04:44:05.313Z,1015.50
2022-09-12T04:45:09.690Z,1015.51
2022-09-12T04:46:14.134Z,1015.49
2022-09-12T04:47:18.219Z,1015.51
2022-09-12T04:48:22.500Z,1015.51
2022-09-12T04:49:26.888Z,1015.51
2022-09-12T04:50:31.068Z,1015.53
2022-09-12T04:51:35.290Z,1015.51
2022-09-12T04:52:39.635Z,1015.55
2022-09-12T04:53:43.829Z,1015.57
2022-09-12T04:54:48.148Z,1015.58
2022-09-12T04:55:52.372Z,1015.57
2022-09-12T04:56:56.628Z,1015.56
2022-09-12T04:58:00.901Z,1015.58
2022-09-12T04:59:05.228Z,1015.58
2022-09-12T05:00:09.530Z,1015.56
2022-09-12T05:01:13.950Z,1015.59
2022-09-12T05:02:18.196Z,1015.60
2022-09-12T05:03:22.444Z,1015.64
2022-09-12T05:04:26.681Z,1015.63
2022-09-12T05:05:31.027Z,1015.63
2022-09-12T05:06:35.303Z,1015.62
2022-09-12T05:07:39.541Z,1015.62
2022-09-12T05:08:43.838Z,1015.62
2022-09-12T05:09:48.108Z,1015.62
2022-09-12T05:10:52.390Z,1015.63
2022-09-12T05:12:05.336Z,1015.62
2022-09-12T05:13:01.053Z,1015.64
2022-09-12T05:14:05.397Z,1015.63
2022-09-12T05:15:09.646Z,1015.62
2022-09-12T05:16:13.962Z,1015.63
2022-09-12T05:17:18.215Z,1015.66
2022-09-12T05:18:22.487Z,1015.66
2022-09-12T05:19:26.733Z,1015.67
2022-09-12T05:20:31.079Z,1015.66
2022-09-12T05:21:35.394Z,1015.67
2022-09-12T05:22:39.659Z,1015.67
2022-09-12T05:23:43.920Z,1015.67
2022-09-12T05:24:50.563Z,1015.68
2022-09-12T05:25:52.485Z,1015.66
2022-09-12T05:26:56.748Z,1015.67
2022-09-12T05:28:01.079Z,1015.65
2022-09-12T05:29:05.352Z,1015.65
2022-09-12T05:30:09.668Z,1015.67
2022-09-12T05:31:13.922Z,1015.68
2022-09-12T05:32:18.213Z,1015.68
2022-09-12T05:33:25.099Z,1015.67
2022-09-12T05:34:26.824Z,1015.68
2022-09-12T05:35:31.127Z,1015.68
2022-09-12T05:36:35.494Z,1015.67
2022-09-12T05:37:39.717Z,1015.68
2022-09-12T05:38:43.991Z,1015.67
2022-09-12T05:39:48.295Z,1015.66
2022-09-12T05:40:52.626Z,1015.66
2022-09-12T05:41:56.925Z,1015.66
2022-09-12T05:43:01.239Z,1015.65
2022-09-12T05:44:05.508Z,1015.65
2022-09-12T05:45:09.789Z,1015.63
2022-09-12T05:46:14.140Z,1015.63
2022-09-12T05:47:18.345Z,1015.62
2022-09-12T05:48:22.630Z,1015.64
2022-09-12T05:49:26.992Z,1015.63
2022-09-12T05:50:31.314Z,1015.63
2022-09-12T05:51:35.621Z,1015.63
2022-09-12T05:52:39.874Z,1015.62
2022-09-12T05:53:44.171Z,1015.62
2022-09-12T05:54:48.515Z,1015.63
2022-09-12T05:55:52.755Z,1015.61
2022-09-12T05:56:57.040Z,1015.62
2022-09-12T05:58:01.393Z,1015.62
2022-09-12T05:59:05.775Z,1015.62
2022-09-12T06:00:10.001Z,1015.63
2022-09-12T06:01:14.395Z,1015.63
2022-09-12T06:02:18.641Z,1015.64
2022-09-12T06:03:22.883Z,1015.67
2022-09-12T06:04:27.315Z,1015.66
2022-09-12T06:05:31.629Z,1015.65
2022-09-12T06:06:35.855Z,1015.63
2022-09-12T06:07:40.216Z,1015.63
2022-09-12T06:08:44.592Z,1015.63
2022-09-12T06:09:48.835Z,1015.62
2022-09-12T06:10:53.114Z,1015.61
2022-09-12T06:11:57.422Z,1015.62
2022-09-12T06:13:01.697Z,1015.59
2022-09-12T06:14:06.064Z,1015.60
2022-09-12T06:15:10.395Z,1015.62
2022-09-12T06:16:14.680Z,1015.62
2022-09-12T06:17:18.983Z,1015.63
2022-09-12T06:18:23.292Z,1015.61
2022-09-12T06:19:27.758Z,1015.61
2022-09-12T06:20:31.975Z,1015.61
2022-09-12T06:21:36.322Z,1015.61
2022-09-12T06:22:40.558Z,1015.61
2022-09-12T06:23:44.858Z,1015.62
2022-09-12T06:24:49.251Z,1015.63
2022-09-12T06:25:53.576Z,1015.64
2022-09-12T06:26:57.917Z,1015.65
2022-09-12T06:28:02.185Z,1015.63
2022-09-12T06:29:06.444Z,1015.63
2022-09-12T06:30:10.753Z,1015.61
2022-09-12T06:31:14.991Z,1015.59
2022-09-12T06:32:19.355Z,1015.60
2022-09-12T06:33:23.628Z,1015.61
2022-09-12T06:34:28.000Z,1015.60
2022-09-12T06:35:32.248Z,1015.60
2022-09-12T06:36:36.642Z,1015.59
2022-09-12T06:37:40.905Z,1015.60
2022-09-12T06:38:45.299Z,1015.58
2022-09-12T06:39:49.618Z,1015.57
2022-09-12T06:40:53.823Z,1015.58
2022-09-12T06:41:58.100Z,1015.56
2022-09-12T06:43:02.374Z,1015.55
2022-09-12T06:44:06.770Z,1015.57
2022-09-12T06:45:11.080Z,1015.58
2022-09-12T06:46:15.379Z,1015.56
2022-09-12T06:47:19.655Z,1015.59
2022-09-12T06:48:27.050Z,1015.59
2022-09-12T06:49:30.411Z,1015.57
2022-09-12T06:50:34.838Z,1015.55
2022-09-12T06:51:38.952Z,1015.55
2022-09-12T06:52:43.293Z,1015.55
2022-09-12T06:53:47.618Z,1015.57
2022-09-12T06:54:51.905Z,1015.56
2022-09-12T06:55:56.188Z,1015.57
2022-09-12T06:57:00.562Z,1015.59
2022-09-12T06:58:04.930Z,1015.58
2022-09-12T06:59:09.239Z,1015.60
2022-09-12T07:00:13.530Z,1015.62
2022-09-12T07:01:18.088Z,1015.64
2022-09-12T07:02:22.209Z,1015.65
2022-09-12T07:03:26.431Z,1015.65
2022-09-12T07:04:30.765Z,1015.64
2022-09-12T07:05:35.088Z,1015.64
2022-09-12T07:06:39.513Z,1015.63
2022-09-12T07:07:43.833Z,1015.62
2022-09-12T07:08:48.224Z,1015.63
2022-09-12T07:09:52.559Z,1015.62
2022-09-12T07:10:56.878Z,1015.63
2022-09-12T07:12:01.209Z,1015.64
2022-09-12T07:13:05.482Z,1015.63
2022-09-12T07:14:09.840Z,1015.62
2022-09-12T07:15:14.136Z,1015.62
2022-09-12T07:16:19.866Z,1015.60
2022-09-12T07:17:22.726Z,1015.60
2022-09-12T07:18:27.067Z,1015.61
2022-09-12T07:19:31.377Z,1015.60
2022-09-12T07:20:35.711Z,1015.60
2022-09-12T07:21:40.782Z,1015.60
2022-09-12T07:22:44.364Z,1015.60
2022-09-12T07:23:48.854Z,1015.59
2022-09-12T07:24:53.134Z,1015.58
2022-09-12T07:25:57.492Z,1015.57
2022-09-12T07:27:01.776Z,1015.57
2022-09-12T07:28:06.101Z,1015.55
2022-09-12T07:29:35.223Z,1015.57
2022-09-12T07:30:14.710Z,1015.58
2022-09-12T07:31:19.010Z,1015.58
2022-09-12T07:32:23.333Z,1015.58
2022-09-12T07:33:27.601Z,1015.57
2022-09-12T07:34:31.907Z,1015.58
2022-09-12T07:35:36.201Z,1015.57
2022-09-12T07:36:40.514Z,1015.58
2022-09-12T07:37:44.793Z,1015.59
2022-09-12T07:38:49.146Z,1015.58
2022-09-12T07:39:53.429Z,1015.57
2022-09-12T07:40:57.778Z,1015.57
2022-09-12T07:42:02.084Z,1015.55
2022-09-12T07:43:06.426Z,1015.56
2022-09-12T07:44:10.686Z,1015.56
2022-09-12T07:45:15.116Z,1015.54
2022-09-12T07:46:19.391Z,1015.53
2022-09-12T07:47:23.775Z,1015.54
2022-09-12T07:48:28.583Z,1015.53
2022-09-12T07:49:32.468Z,1015.54
2022-09-12T07:50:36.709Z,1015.54
2022-09-12T07:51:40.995Z,1015.54
2022-09-12T07:52:45.306Z,1015.53
2022-09-12T07:53:49.617Z,1015.53
2022-09-12T07:54:53.931Z,1015.55
2022-09-12T07:55:58.275Z,1015.57
2022-09-12T07:57:02.557Z,1015.58
2022-09-12T07:58:06.941Z,1015.56
2022-09-12T07:59:11.222Z,1015.55
2022-09-12T08:00:15.616Z,1015.53
2022-09-12T08:01:20.131Z,1015.51
2022-09-12T08:02:24.464Z,1015.52
2022-09-12T08:03:28.730Z,1015.49
2022-09-12T08:04:33.146Z,1015.47
2022-09-12T08:05:37.430Z,1015.51
2022-09-12T08:06:41.724Z,1015.49
2022-09-12T08:07:46.049Z,1015.51
2022-09-12T08:08:50.483Z,1015.50
2022-09-12T08:09:54.737Z,1015.50
2022-09-12T08:10:59.072Z,1015.46
2022-09-12T08:12:03.348Z,1015.48
2022-09-12T08:13:09.402Z,1015.47
2022-09-12T08:14:12.160Z,1015.50
2022-09-12T08:15:16.378Z,1015.50
2022-09-12T08:16:20.780Z,1015.53
2022-09-12T08:17:25.191Z,1015.54
2022-09-12T08:18:29.455Z,1015.56
2022-09-12T08:19:33.792Z,1015.57
2022-09-12T08:20:38.174Z,1015.56
2022-09-12T08:21:42.523Z,1015.52
2022-09-12T08:22:46.792Z,1015.53
2022-09-12T08:23:51.113Z,1015.55
2022-09-12T08:24:55.426Z,1015.57
2022-09-12T08:26:03.076Z,1015.57
2022-09-12T08:27:04.260Z,1015.57
2022-09-12T08:28:08.569Z,1015.57
2022-09-12T08:29:13.002Z,1015.56
2022-09-12T08:30:17.278Z,1015.56
2022-09-12T08:31:21.679Z,1015.57
2022-09-12T08:32:25.953Z,1015.55
2022-09-12T08:33:30.330Z,1015.55
2022-09-12T08:34:34.644Z,1015.54
2022-09-12T08:35:38.960Z,1015.53
2022-09-12T08:36:43.395Z,1015.51
2022-09-12T08:37:47.661Z,1015.52
2022-09-12T08:38:54.439Z,1015.51
2022-09-12T08:39:56.503Z,1015.50
2022-09-12T08:41:00.711Z,1015.49
2022-09-12T08:42:05.187Z,1015.50
2022-09-12T08:43:09.404Z,1015.48
2022-09-12T08:44:13.802Z,1015.49
2022-09-12T08:45:18.170Z,1015.47
2022-09-12T08:46:22.607Z,1015.47
2022-09-12T08:47:26.836Z,1015.50
2022-09-12T08:48:31.189Z,1015.49
2022-09-12T08:49:35.546Z,1015.50
2022-09-12T08:50:46.601Z,1015.49
2022-09-12T08:51:46.230Z,1015.52
2022-09-12T08:52:50.550Z,1015.51
2022-09-12T08:53:54.997Z,1015.52
2022-09-12T08:54:59.252Z,1015.52
2022-09-12T08:56:03.569Z,1015.52
2022-09-12T08:57:07.842Z,1015.52
2022-09-12T08:58:12.206Z,1015.47
2022-09-12T08:59:16.615Z,1015.46
2022-09-12T09:00:21.039Z,1015.45
2022-09-12T09:01:25.344Z,1015.46
2022-09-12T09:02:29.815Z,1015.47
2022-09-12T09:03:34.037Z,1015.49
2022-09-12T09:04:38.399Z,1015.48
2022-09-12T09:05:42.792Z,1015.47
2022-09-12T09:06:47.037Z,1015.47
2022-09-12T09:07:51.403Z,1015.47
2022-09-12T09:08:55.714Z,1015.46
2022-09-12T09:10:00.065Z,1015.44
2022-09-12T09:11:04.438Z,1015.43
2022-09-12T09:12:08.830Z,1015.43
2022-09-12T09:13:13.091Z,1015.43
2022-09-12T09:14:17.432Z,1015.41
2022-09-12T09:15:21.821Z,1015.39
2022-09-12T09:16:26.192Z,1015.38
2022-09-12T09:17:30.426Z,1015.39
2022-09-12T09:18:34.781Z,1015.38
2022-09-12T09:19:39.156Z,1015.38
2022-09-12T09:20:43.606Z,1015.36
2022-09-12T09:21:47.865Z,1015.35
2022-09-12T09:22:53.565Z,1015.36
2022-09-12T09:23:56.646Z,1015.37
2022-09-12T09:25:01.014Z,1015.36
2022-09-12T09:26:05.357Z,1015.36
2022-09-12T09:27:29.823Z,1015.36
2022-09-12T09:28:14.022Z,1015.33
2022-09-12T09:29:18.450Z,1015.33
2022-09-12T09:30:22.723Z,1015.32
2022-09-12T09:31:27.117Z,1015.28
2022-09-12T09:32:31.399Z,1015.26
2022-09-12T09:33:36.095Z,1015.28
2022-09-12T09:34:40.179Z,1015.26
2022-09-12T09:35:44.590Z,1015.28
2022-09-12T09:36:48.948Z,1015.31
2022-09-12T09:37:58.020Z,1015.29
2022-09-12T09:38:57.718Z,1015.28
2022-09-12T09:40:02.092Z,1015.28
2022-09-12T09:41:06.331Z,1015.28
2022-09-12T09:42:13.700Z,1015.27
2022-09-12T09:43:17.212Z,1015.28
2022-09-12T09:44:21.596Z,1015.27
2022-09-12T09:45:25.979Z,1015.27
2022-09-12T09:46:30.424Z,1015.26
2022-09-12T09:47:34.685Z,1015.25
2022-09-12T09:48:39.131Z,1015.23
2022-09-12T09:49:43.509Z,1015.22
2022-09-12T09:50:47.881Z,1015.23
2022-09-12T09:51:52.262Z,1015.21
2022-09-12T09:52:56.668Z,1015.23
2022-09-12T09:54:01.113Z,1015.22
2022-09-12T09:55:05.475Z,1015.21
2022-09-12T09:56:09.884Z,1015.19
2022-09-12T09:57:14.235Z,1015.19
2022-09-12T09:58:18.690Z,1015.18
2022-09-12T09:59:23.200Z,1015.16
2022-09-12T10:00:27.604Z,1015.15
2022-09-12T10:01:32.013Z,1015.16
2022-09-12T10:02:36.559Z,1015.11
2022-09-12T10:03:40.957Z,1015.11
2022-09-12T10:04:45.311Z,1015.09
2022-09-12T10:05:49.703Z,1015.05
2022-09-12T10:06:54.107Z,1015.05
2022-09-12T10:07:58.574Z,1015.03
2022-09-12T10:09:02.967Z,1015.02
2022-09-12T10:10:07.377Z,1015.01
2022-09-12T10:11:11.801Z,1014.98
2022-09-12T10:12:16.183Z,1014.96
2022-09-12T10:13:34.639Z,1014.98
2022-09-12T10:14:38.082Z,1014.99
2022-09-12T10:15:42.586Z,1014.99
2022-09-12T10:16:46.855Z,1014.97
2022-09-12T10:17:51.271Z,1014.94
2022-09-12T10:18:55.685Z,1014.91
2022-09-12T10:20:20.078Z,1014.93
2022-09-12T10:21:04.411Z,1014.91
2022-09-12T10:22:08.811Z,1014.92
2022-09-12T10:23:13.201Z,1014.92
2022-09-12T10:24:17.620Z,1014.92
2022-09-12T10:25:21.978Z,1014.92
2022-09-12T10:26:26.349Z,1014.89
2022-09-12T10:27:30.745Z,1014.89
2022-09-12T10:28:35.143Z,1014.91
2022-09-12T10:29:39.490Z,1014.89
2022-09-12T10:30:43.962Z,1014.91
2022-09-12T10:31:48.246Z,1014.90
2022-09-12T10:32:52.673Z,1014.90
2022-09-12T10:33:57.076Z,1014.88
2022-09-12T10:35:01.477Z,1014.87
2022-09-12T10:36:05.834Z,1014.86
2022-09-12T10:37:10.189Z,1014.84
2022-09-12T10:38:14.544Z,1014.84
2022-09-12T10:39:19.057Z,1014.81
2022-09-12T10:40:23.403Z,1014.81
2022-09-12T10:41:27.782Z,1014.80
2022-09-12T10:42:32.199Z,1014.80
2022-09-12T10:43:36.583Z,1014.81
2022-09-12T10:44:41.001Z,1014.81
2022-09-12T10:45:45.422Z,1014.79
2022-09-12T10:46:49.837Z,1014.78
2022-09-12T10:47:54.187Z,1014.78
2022-09-12T10:48:58.621Z,1014.76
2022-09-12T10:50:03.109Z,1014.75
2022-09-12T10:51:07.403Z,1014.73
2022-09-12T10:52:11.771Z,1014.71
2022-09-12T10:53:16.183Z,1014.73
2022-09-12T10:54:20.608Z,1014.72
2022-09-12T10:55:25.014Z,1014.74
2022-09-12T10:56:29.404Z,1014.74
2022-09-12T10:57:33.797Z,1014.75
2022-09-12T10:58:38.223Z,1014.74
2022-09-12T10:59:42.645Z,1014.71
2022-09-12T11:00:47.007Z,1014.71
2022-09-12T11:01:51.494Z,1014.72
2022-09-12T11:02:55.885Z,1014.71
2022-09-12T11:04:00.343Z,1014.69
2022-09-12T11:05:04.646Z,1014.70
2022-09-12T11:06:09.054Z,1014.69
2022-09-12T11:07:13.468Z,1014.69
2022-09-12T11:08:17.884Z,1014.69
2022-09-12T11:09:22.386Z,1014.69
2022-09-12T11:10:26.720Z,1014.68
2022-09-12T11:11:31.226Z,1014.67
2022-09-12T11:12:35.611Z,1014.65
2022-09-12T11:13:40.052Z,1014.68
2022-09-12T11:14:58.556Z,1014.67
2022-09-12T11:16:02.168Z,1014.64
2022-09-12T11:17:08.838Z,1014.65
2022-09-12T11:18:10.953Z,1014.65
2022-09-12T11:19:15.430Z,1014.66
2022-09-12T11:20:19.881Z,1014.66
2022-09-12T11:21:24.280Z,1014.65
2022-09-12T11:22:31.750Z,1014.66
2022-09-12T11:23:33.196Z,1014.68
2022-09-12T11:24:37.584Z,1014.67
2022-09-12T11:25:41.972Z,1014.68
2022-09-12T11:26:46.451Z,1014.66
2022-09-12T11:27:50.867Z,1014.65
2022-09-12T11:28:55.389Z,1014.64
2022-09-12T11:29:59.713Z,1014.65
2022-09-12T11:31:04.215Z,1014.67
2022-09-12T11:32:08.541Z,1014.65
2022-09-12T11:33:13.050Z,1014.66
2022-09-12T11:34:17.428Z,1014.63
2022-09-12T11:35:21.847Z,1014.65
2022-09-12T11:36:26.243Z,1014.63
2022-09-12T11:37:30.788Z,1014.64
2022-09-12T11:38:35.194Z,1014.64
2022-09-12T11:39:39.612Z,1014.60
2022-09-12T11:40:44.028Z,1014.58
2022-09-12T11:41:48.354Z,1014.57
2022-09-12T11:42:52.859Z,1014.60
2022-09-12T11:43:57.316Z,1014.58
2022-09-12T11:45:01.777Z,1014.54
2022-09-12T11:46:06.190Z,1014.52
2022-09-12T11:47:10.513Z,1014.49
2022-09-12T11:48:14.909Z,1014.47
2022-09-12T11:49:19.310Z,1014.46
2022-09-12T11:50:23.717Z,1014.42
2022-09-12T11:51:28.126Z,1014.40
2022-09-12T11:52:46.687Z,1014.40
2022-09-12T11:53:50.113Z,1014.41
2022-09-12T11:54:54.457Z,1014.43
2022-09-12T11:55:58.827Z,1014.41
2022-09-12T11:57:03.215Z,1014.43
2022-09-12T11:58:07.730Z,1014.42
2022-09-12T11:59:12.103Z,1014.44
2022-09-12T12:00:16.512Z,1014.43
2022-09-12T12:01:20.895Z,1014.45
2022-09-12T12:02:25.386Z,1014.42
2022-09-12T12:03:29.742Z,1014.42
2022-09-12T12:04:34.135Z,1014.39
2022-09-12T12:05:38.564Z,1014.41
2022-09-12T12:06:43.007Z,1014.41
2022-09-12T12:07:47.378Z,1014.38
2022-09-12T12:08:51.972Z,1014.35
2022-09-12T12:09:56.302Z,1014.34
2022-09-12T12:11:00.712Z,1014.36
2022-09-12T12:12:05.109Z,1014.35
2022-09-12T12:13:13.850Z,1014.35
2022-09-12T12:14:13.928Z,1014.35
2022-09-12T12:15:18.340Z,1014.38
2022-09-12T12:16:22.843Z,1014.38
2022-09-12T12:17:27.212Z,1014.40
2022-09-12T12:18:37.627Z,1014.36
2022-09-12T12:19:40.689Z,1014.28
2022-09-12T12:20:45.193Z,1014.25
2022-09-12T12:21:49.553Z,1014.23
2022-09-12T12:23:08.011Z,1014.23
2022-09-12T12:24:11.556Z,1014.21
2022-09-12T12:25:20.850Z,1014.24
2022-09-12T12:26:20.314Z,1014.23
2022-09-12T12:27:24.725Z,1014.24
2022-09-12T12:28:29.136Z,1014.24
2022-09-12T12:29:33.537Z,1014.24
2022-09-12T12:32:05.315Z,1014.24
2022-09-12T12:33:09.643Z,1014.20
2022-09-12T12:34:28.083Z,1014.21
2022-09-12T12:35:31.429Z,1014.21
2022-09-12T12:36:35.862Z,1014.19
2022-09-12T12:37:54.366Z,1014.19
2022-09-12T12:38:57.676Z,1014.16
2022-09-12T12:40:02.147Z,1014.14
2022-09-12T12:41:06.416Z,1014.14
2022-09-12T12:42:10.839Z,1014.13
2022-09-12T12:43:15.236Z,1014.13
2022-09-12T12:44:19.738Z,1014.11
2022-09-12T12:45:24.283Z,1014.11
2022-09-12T12:46:28.806Z,1014.11
2022-09-12T12:47:33.050Z,1014.09
2022-09-12T12:48:37.498Z,1014.10
2022-09-12T12:49:42.060Z,1014.09
2022-09-12T12:50:46.351Z,1014.06
2022-09-12T12:51:50.785Z,1014.05
2022-09-12T12:52:55.192Z,1014.06
2022-09-12T12:53:59.584Z,1014.07
2022-09-12T12:55:04.011Z,1014.06
2022-09-12T12:56:08.465Z,1014.03
2022-09-12T12:57:26.889Z,1014.04
2022-09-12T12:58:30.396Z,1014.02
2022-09-12T12:59:34.803Z,1014.03
2022-09-12T13:00:39.944Z,1014.04
2022-09-12T13:01:43.655Z,1014.04